createdAt,value
2018-04-17T00:00:39.938Z,101828.42
2018-04-17T00:03:05.615Z,101834.55
2018-04-17T00:05:31.295Z,101837.84
2018-04-17T00:07:57.182Z,101833.73
2018-04-17T00:10:22.883Z,101836.86
2018-04-17T00:12:48.607Z,101836.17
2018-04-17T00:15:14.266Z,101840.23
2018-04-17T00:17:39.977Z,101835.28
2018-04-17T00:20:05.638Z,101822.27
2018-04-17T00:22:31.355Z,101838.77
2018-04-17T00:24:57.027Z,101848.40
2018-04-17T00:27:22.707Z,101847.67
2018-04-17T00:29:48.627Z,101841.33
2018-04-17T00:32:14.498Z,101843.27
2018-04-17T00:34:40.163Z,101847.35
2018-04-17T00:37:05.972Z,101845.09
2018-04-17T00:39:31.679Z,101852.45
2018-04-17T00:41:57.374Z,101861.62
2018-04-17T00:44:23.031Z,101863.34
2018-04-17T00:46:48.720Z,101863.09
2018-04-17T00:49:14.403Z,101860.25
2018-04-17T00:51:40.253Z,101860.02
2018-04-17T00:54:08.792Z,101863.64
2018-04-17T00:56:34.462Z,101867.00
2018-04-17T00:59:00.154Z,101868.36
2018-04-17T01:01:25.812Z,101864.54
2018-04-17T01:03:51.623Z,101873.45
2018-04-17T01:06:17.294Z,101867.13
2018-04-17T01:08:42.968Z,101865.09
2018-04-17T01:11:08.666Z,101868.30
2018-04-17T01:13:34.349Z,101871.48
2018-04-17T01:16:00.043Z,101872.11
2018-04-17T01:18:25.722Z,101880.58
2018-04-17T01:20:51.421Z,101883.82
2018-04-17T01:23:17.123Z,101882.86
2018-04-17T01:25:42.795Z,101886.79
2018-04-17T01:28:08.475Z,101880.94
2018-04-17T01:30:34.172Z,101885.17
2018-04-17T01:33:00.097Z,101882.02
2018-04-17T01:35:25.799Z,101883.12
2018-04-17T01:37:51.779Z,101888.73
2018-04-17T01:40:17.637Z,101887.63
2018-04-17T01:42:43.296Z,101888.23
2018-04-17T01:45:09.007Z,101887.15
2018-04-17T01:47:34.804Z,101882.98
2018-04-17T01:50:00.459Z,101885.95
2018-04-17T01:52:26.129Z,101886.88
2018-04-17T01:54:51.795Z,101884.61
2018-04-17T01:57:17.650Z,101884.02
2018-04-17T01:59:43.306Z,101887.75
2018-04-17T02:02:09.021Z,101876.12
2018-04-17T02:04:34.712Z,101883.98
2018-04-17T02:07:00.354Z,101876.55
2018-04-17T02:09:26.044Z,101886.29
2018-04-17T02:11:51.952Z,101886.44
2018-04-17T02:14:17.607Z,101889.12
2018-04-17T02:16:43.285Z,101889.86
2018-04-17T02:19:08.972Z,101894.70
2018-04-17T02:21:34.670Z,101898.42
2018-04-17T02:24:00.344Z,101907.09
2018-04-17T02:26:26.036Z,101907.63
2018-04-17T02:28:51.694Z,101909.36
2018-04-17T02:31:17.392Z,101910.39
2018-04-17T02:33:43.060Z,101913.08
2018-04-17T02:36:08.726Z,101919.58
2018-04-17T02:38:34.431Z,101924.63
2018-04-17T02:41:00.107Z,101912.70
2018-04-17T02:43:25.870Z,101911.97
2018-04-17T02:45:51.568Z,101914.66
2018-04-17T02:48:17.228Z,101918.88
2018-04-17T02:50:42.954Z,101925.60
2018-04-17T02:53:08.616Z,101931.22
2018-04-17T02:55:34.291Z,101925.99
2018-04-17T02:57:59.963Z,101928.61
2018-04-17T03:00:25.635Z,101929.59
2018-04-17T03:02:51.325Z,101932.29
2018-04-17T03:05:17.052Z,101939.72
2018-04-17T03:07:42.740Z,101941.44
2018-04-17T03:10:08.437Z,101939.67
2018-04-17T03:12:34.152Z,101940.38
2018-04-17T03:14:59.839Z,101938.08
2018-04-17T03:17:25.523Z,101940.84
2018-04-17T03:19:51.202Z,101938.94
2018-04-17T03:22:16.906Z,101946.55
2018-04-17T03:24:42.614Z,101945.06
2018-04-17T03:27:08.297Z,101946.55
2018-04-17T03:29:33.970Z,101950.94
2018-04-17T03:31:59.715Z,101955.04
2018-04-17T03:34:25.659Z,101955.95
2018-04-17T03:36:51.335Z,101954.83
2018-04-17T03:39:17.032Z,101959.35
2018-04-17T03:41:42.751Z,101961.22
2018-04-17T03:44:08.438Z,101961.27
2018-04-17T03:46:34.104Z,101961.72
2018-04-17T03:48:59.777Z,101967.09
2018-04-17T03:51:25.471Z,101966.70
2018-04-17T03:53:51.153Z,101966.34
2018-04-17T03:56:17.670Z,101980.88
2018-04-17T03:58:43.349Z,101977.69
2018-04-17T04:01:09.039Z,101979.03
2018-04-17T04:03:34.731Z,101982.74
2018-04-17T04:06:00.443Z,101984.09
2018-04-17T04:08:26.115Z,101982.03
2018-04-17T04:10:51.780Z,101974.61
2018-04-17T04:13:17.503Z,101980.20
2018-04-17T04:15:43.170Z,101980.73
2018-04-17T04:18:14.863Z,101981.08
2018-04-17T04:20:46.645Z,101989.00
2018-04-17T04:23:18.379Z,101985.67
2018-04-17T04:28:43.137Z,101990.23
2018-04-17T04:31:08.823Z,101992.84
2018-04-17T04:33:34.810Z,101997.86
2018-04-17T04:36:00.486Z,102006.59
2018-04-17T04:38:26.166Z,102015.92
2018-04-17T04:40:51.818Z,102013.77
2018-04-17T04:43:17.502Z,102019.45
2018-04-17T04:45:43.158Z,102025.57
2018-04-17T04:48:08.999Z,102026.42
2018-04-17T04:50:34.682Z,102029.45
2018-04-17T04:53:00.360Z,102037.30
2018-04-17T04:55:26.128Z,102035.81
2018-04-17T04:57:51.821Z,102042.29
2018-04-17T05:00:17.487Z,102049.18
2018-04-17T05:02:43.163Z,102045.96
2018-04-17T05:05:08.814Z,102056.46
2018-04-17T05:07:34.500Z,102053.09
2018-04-17T05:10:00.176Z,102057.05
2018-04-17T05:12:25.866Z,102052.23
2018-04-17T05:14:51.603Z,102057.88
2018-04-17T05:17:17.291Z,102056.48
2018-04-17T05:19:43.013Z,102063.55
2018-04-17T05:22:08.725Z,102069.69
2018-04-17T05:24:34.426Z,102072.41
2018-04-17T05:27:00.122Z,102078.62
2018-04-17T05:29:25.815Z,102085.61
2018-04-17T05:31:51.490Z,102084.81
2018-04-17T05:34:17.227Z,102087.87
2018-04-17T05:36:42.882Z,102094.05
2018-04-17T05:39:08.572Z,102101.92
2018-04-17T05:41:34.227Z,102103.63
2018-04-17T05:43:59.922Z,102108.18
2018-04-17T05:46:25.575Z,102104.95
2018-04-17T05:48:51.267Z,102112.80
2018-04-17T05:51:16.962Z,102107.52
2018-04-17T05:53:42.707Z,102114.95
2018-04-17T05:56:08.357Z,102118.16
2018-04-17T05:58:34.052Z,102124.80
2018-04-17T06:00:59.726Z,102125.11
2018-04-17T06:03:25.436Z,102126.45
2018-04-17T06:05:51.151Z,102122.50
2018-04-17T06:08:16.818Z,102127.87
2018-04-17T06:10:42.500Z,102128.94
2018-04-17T06:13:08.206Z,102128.55
2018-04-17T06:15:33.861Z,102130.66
2018-04-17T06:17:59.643Z,102132.09
2018-04-17T06:20:25.324Z,102135.51
2018-04-17T06:22:51.027Z,102132.36
2018-04-17T06:25:16.713Z,102133.23
2018-04-17T06:27:42.366Z,102137.42
2018-04-17T06:30:08.039Z,102135.11
2018-04-17T06:32:33.700Z,102129.28
2018-04-17T06:34:59.385Z,102125.37
2018-04-17T06:37:25.055Z,102134.53
2018-04-17T06:39:50.751Z,102131.41
2018-04-17T06:42:16.419Z,102134.44
2018-04-17T06:44:42.139Z,102135.21
2018-04-17T06:47:07.808Z,102138.56
2018-04-17T06:49:33.491Z,102146.25
2018-04-17T06:51:59.224Z,102140.11
2018-04-17T06:54:24.912Z,102143.11
2018-04-17T06:56:50.586Z,102147.86
2018-04-17T06:59:16.248Z,102146.84
2018-04-17T07:01:41.913Z,102132.89
2018-04-17T07:04:07.611Z,102158.97
2018-04-17T07:06:33.587Z,102159.31
2018-04-17T07:08:59.270Z,102162.23
2018-04-17T07:11:24.941Z,102163.20
2018-04-17T07:13:50.618Z,102171.20
2018-04-17T07:16:16.280Z,102171.19
2018-04-17T07:18:41.960Z,102161.42
2018-04-17T07:21:07.690Z,102170.09
2018-04-17T07:23:33.343Z,102173.59
2018-04-17T07:25:59.035Z,102172.60
2018-04-17T07:28:24.722Z,102174.58
2018-04-17T07:30:50.434Z,102167.54
2018-04-17T07:33:16.102Z,102172.65
2018-04-17T07:35:41.905Z,102177.56
2018-04-17T07:38:07.623Z,102175.27
2018-04-17T07:40:33.346Z,102178.77
2018-04-17T07:43:01.820Z,102171.39
2018-04-17T07:45:27.515Z,102171.27
2018-04-17T07:47:59.230Z,102175.66
2018-04-17T07:50:24.924Z,102174.64
2018-04-17T07:52:50.610Z,102173.63
2018-04-17T07:55:16.342Z,102159.59
2018-04-17T07:57:42.011Z,102176.37
2018-04-17T08:00:07.971Z,102174.88
2018-04-17T08:02:33.664Z,102172.53
2018-04-17T08:04:59.343Z,102176.21
2018-04-17T08:07:25.004Z,102190.43
2018-04-17T08:09:50.683Z,102194.30
2018-04-17T08:12:16.350Z,102189.31
2018-04-17T08:14:42.027Z,102198.48
2018-04-17T08:17:07.682Z,102196.68
2018-04-17T08:19:33.369Z,102191.81
2018-04-17T08:21:59.046Z,102205.29
2018-04-17T08:24:24.733Z,102212.53
2018-04-17T08:26:50.590Z,102210.13
2018-04-17T08:29:16.259Z,102213.03
2018-04-17T08:31:41.938Z,102207.17
2018-04-17T08:34:07.606Z,102215.03
2018-04-17T08:36:33.293Z,102222.97
2018-04-17T08:38:58.946Z,102222.30
2018-04-17T08:41:24.618Z,102224.27
2018-04-17T08:43:50.274Z,102224.53
2018-04-17T08:46:15.971Z,102226.31
2018-04-17T08:48:41.676Z,102222.84
2018-04-17T08:51:07.402Z,102224.15
2018-04-17T08:53:33.136Z,102228.84
2018-04-17T08:55:58.840Z,102225.84
2018-04-17T08:58:24.516Z,102226.17
2018-04-17T09:00:50.237Z,102215.77
2018-04-17T09:03:15.896Z,102228.42
2018-04-17T09:05:41.591Z,102230.16
2018-04-17T09:08:07.265Z,102229.86
2018-04-17T09:10:32.943Z,102233.75
2018-04-17T09:12:58.625Z,102225.38
2018-04-17T09:15:24.290Z,102229.68
2018-04-17T09:17:49.952Z,102233.27
2018-04-17T09:20:15.626Z,102228.16
2018-04-17T09:22:41.323Z,102243.87
2018-04-17T09:25:06.999Z,102243.04
2018-04-17T09:27:32.731Z,102244.31
2018-04-17T09:29:58.402Z,102247.77
2018-04-17T09:32:24.090Z,102258.24
2018-04-17T09:34:49.766Z,102251.18
2018-04-17T09:37:15.457Z,102261.25
2018-04-17T09:39:41.123Z,102252.23
2018-04-17T09:42:06.824Z,102252.86
2018-04-17T09:44:32.516Z,102252.39
2018-04-17T09:46:58.195Z,102251.35
2018-04-17T09:49:23.863Z,102257.91
2018-04-17T09:51:49.587Z,102248.58
2018-04-17T09:54:15.307Z,102254.84
2018-04-17T09:56:41.008Z,102257.55
2018-04-17T09:59:06.719Z,102259.93
2018-04-17T10:01:32.401Z,102257.00
2018-04-17T10:03:58.059Z,102259.86
2018-04-17T10:06:23.746Z,102261.34
2018-04-17T10:08:49.487Z,102261.91
2018-04-17T10:11:15.135Z,102268.81
2018-04-17T10:13:40.795Z,102280.11
2018-04-17T10:16:06.495Z,102268.40
2018-04-17T10:18:32.166Z,102265.81
2018-04-17T10:20:57.835Z,102277.52
2018-04-17T10:23:23.507Z,102270.47
2018-04-17T10:25:49.175Z,102265.81
2018-04-17T10:28:15.490Z,102260.14
2018-04-17T10:30:41.146Z,102264.14
2018-04-17T10:33:06.880Z,102261.75
2018-04-17T10:35:32.552Z,102262.07
2018-04-17T10:37:58.233Z,102273.86
2018-04-17T10:40:23.926Z,102265.85
2018-04-17T10:42:49.619Z,102277.45
2018-04-17T10:45:15.381Z,102267.40
2018-04-17T10:47:41.083Z,102272.33
2018-04-17T10:50:06.784Z,102274.07
2018-04-17T10:52:32.514Z,102268.70
2018-04-17T10:54:58.202Z,102264.25
2018-04-17T10:57:23.888Z,102251.48
2018-04-17T10:59:49.565Z,102252.66
2018-04-17T11:02:15.268Z,102259.30
2018-04-17T11:04:40.919Z,102250.92
2018-04-17T11:07:06.588Z,102254.45
2018-04-17T11:09:32.252Z,102255.16
2018-04-17T11:11:57.939Z,102256.43
2018-04-17T11:14:23.602Z,102247.45
2018-04-17T11:16:49.270Z,102247.77
2018-04-17T11:19:14.982Z,102253.64
2018-04-17T11:21:40.684Z,102254.58
2018-04-17T11:24:06.384Z,102253.67
2018-04-17T11:26:32.063Z,102256.20
2018-04-17T11:28:57.739Z,102248.88
2018-04-17T11:31:23.418Z,102260.06
2018-04-17T11:33:49.090Z,102254.73
2018-04-17T11:36:14.768Z,102248.01
2018-04-17T11:38:40.447Z,102253.25
2018-04-17T11:41:06.108Z,102246.30
2018-04-17T11:43:31.810Z,102249.27
2018-04-17T11:45:57.523Z,102246.73
2018-04-17T11:48:23.223Z,102245.47
2018-04-17T11:50:49.249Z,102249.88
2018-04-17T11:53:14.959Z,102258.81
2018-04-17T11:55:40.667Z,102245.36
2018-04-17T11:58:06.362Z,102245.34
2018-04-17T12:00:32.025Z,102250.11
2018-04-17T12:02:57.743Z,102261.94
2018-04-17T12:05:23.430Z,102258.48
2018-04-17T12:07:49.123Z,102251.48
2018-04-17T12:10:14.794Z,102256.02
2018-04-17T12:12:40.481Z,102268.64
2018-04-17T12:15:06.172Z,102280.14
2018-04-17T12:17:31.828Z,102268.56
2018-04-17T12:19:57.521Z,102276.56
2018-04-17T12:22:23.176Z,102273.55
2018-04-17T12:24:49.224Z,102280.44
2018-04-17T12:27:14.900Z,102276.81
2018-04-17T12:29:40.558Z,102269.36
2018-04-17T12:32:06.239Z,102268.66
2018-04-17T12:34:31.927Z,102265.80
2018-04-17T12:36:57.618Z,102270.41
2018-04-17T12:39:23.274Z,102268.03
2018-04-17T12:41:48.939Z,102258.62
2018-04-17T12:47:10.228Z,102261.05
2018-04-17T12:49:35.999Z,102267.66
2018-04-17T12:52:01.667Z,102263.63
2018-04-17T12:54:27.359Z,102256.20
2018-04-17T12:56:53.070Z,102254.17
2018-04-17T12:59:18.771Z,102259.38
2018-04-17T13:01:44.436Z,102265.48
2018-04-17T13:04:10.250Z,102241.09
2018-04-17T13:06:35.946Z,102257.84
2018-04-17T13:09:01.609Z,102260.02
2018-04-17T13:11:27.290Z,102257.64
2018-04-17T13:13:52.951Z,102253.96
2018-04-17T13:16:18.716Z,102262.25
2018-04-17T13:18:44.380Z,102258.50
2018-04-17T13:21:10.117Z,102251.28
2018-04-17T13:23:36.182Z,102256.72
2018-04-17T13:26:01.862Z,102259.12
2018-04-17T13:28:27.517Z,102261.13
2018-04-17T13:30:53.199Z,102261.51
2018-04-17T13:33:18.909Z,102243.55
2018-04-17T13:35:44.579Z,102252.69
2018-04-17T13:38:10.256Z,102251.22
2018-04-17T13:40:35.958Z,102252.38
2018-04-17T13:43:01.627Z,102246.40
2018-04-17T13:45:27.307Z,102256.64
2018-04-17T13:47:52.979Z,102252.77
2018-04-17T13:50:18.653Z,102254.23
2018-04-17T13:52:44.311Z,102252.12
2018-04-17T13:55:10.053Z,102251.21
2018-04-17T13:57:35.715Z,102261.34
2018-04-17T14:00:01.404Z,102254.05
2018-04-17T14:02:27.113Z,102249.96
2018-04-17T14:04:52.741Z,102255.52
2018-04-17T14:07:18.429Z,102245.89
2018-04-17T14:09:44.091Z,102243.73
2018-04-17T14:12:09.804Z,102252.06
2018-04-17T14:14:35.525Z,102256.85
2018-04-17T14:17:01.200Z,102257.86
2018-04-17T14:19:26.899Z,102258.18
2018-04-17T14:21:52.594Z,102259.56
2018-04-17T14:24:18.269Z,102265.55
2018-04-17T14:26:43.962Z,102268.03
2018-04-17T14:29:09.630Z,102277.47
2018-04-17T14:31:35.334Z,102269.06
2018-04-17T14:34:01.011Z,102273.17
2018-04-17T14:36:26.731Z,102254.34
2018-04-17T14:38:52.391Z,102279.76
2018-04-17T14:41:18.081Z,102269.00
2018-04-17T14:43:43.804Z,102267.11
2018-04-17T14:46:09.444Z,102261.92
2018-04-17T14:48:35.188Z,102268.44
2018-04-17T14:51:00.866Z,102259.98
2018-04-17T14:53:26.582Z,102261.45
2018-04-17T14:55:52.291Z,102272.08
2018-04-17T14:58:18.008Z,102264.33
2018-04-17T15:00:43.727Z,102262.09
2018-04-17T15:03:09.408Z,102264.52
2018-04-17T15:05:35.123Z,102262.53
2018-04-17T15:08:00.808Z,102264.27
2018-04-17T15:10:26.679Z,102264.75
2018-04-17T15:12:52.401Z,102261.80
2018-04-17T15:15:18.200Z,102258.23
2018-04-17T15:17:43.835Z,102259.25
2018-04-17T15:20:09.532Z,102254.48
2018-04-17T15:22:35.279Z,102251.82
2018-04-17T15:25:00.964Z,102250.41
2018-04-17T15:27:26.649Z,102246.80
2018-04-17T15:29:52.349Z,102244.00
2018-04-17T15:32:18.031Z,102246.36
2018-04-17T15:34:43.695Z,102242.13
2018-04-17T15:37:09.656Z,102249.03
2018-04-17T15:39:35.331Z,102243.04
2018-04-17T15:42:01.024Z,102249.20
2018-04-17T15:44:26.724Z,102256.34
2018-04-17T15:46:52.387Z,102257.51
2018-04-17T15:49:18.067Z,102257.42
2018-04-17T15:51:43.826Z,102257.68
2018-04-17T15:54:09.507Z,102257.19
2018-04-17T15:56:35.167Z,102269.77
2018-04-17T15:59:00.855Z,102272.73
2018-04-17T16:01:26.516Z,102276.14
2018-04-17T16:03:52.167Z,102274.91
2018-04-17T16:06:17.979Z,102273.39
2018-04-17T16:08:43.639Z,102280.91
2018-04-17T16:11:09.309Z,102287.42
2018-04-17T16:13:34.974Z,102287.28
2018-04-17T16:16:00.654Z,102289.06
2018-04-17T16:18:26.345Z,102291.91
2018-04-17T16:20:52.004Z,102290.66
2018-04-17T16:23:17.987Z,102288.83
2018-04-17T16:25:43.679Z,102290.84
2018-04-17T16:28:09.535Z,102292.40
2018-04-17T16:30:35.250Z,102293.38
2018-04-17T16:33:00.954Z,102298.56
2018-04-17T16:35:26.641Z,102293.50
2018-04-17T16:37:52.306Z,102302.58
2018-04-17T16:40:17.997Z,102304.84
2018-04-17T16:42:43.695Z,102311.25
2018-04-17T16:45:09.416Z,102312.99
2018-04-17T16:47:35.124Z,102304.00
2018-04-17T16:50:00.814Z,102315.27
2018-04-17T16:52:26.516Z,102318.06
2018-04-17T16:54:52.207Z,102326.13
2018-04-17T16:57:17.885Z,102327.01
2018-04-17T16:59:43.597Z,102328.90
2018-04-17T17:02:09.263Z,102323.51
2018-04-17T17:04:34.947Z,102327.43
2018-04-17T17:07:00.649Z,102331.17
2018-04-17T17:09:26.331Z,102326.08
2018-04-17T17:11:52.029Z,102324.16
2018-04-17T17:14:17.707Z,102325.07
2018-04-17T17:16:43.431Z,102320.48
2018-04-17T17:19:09.150Z,102317.61
2018-04-17T17:21:34.898Z,102317.27
2018-04-17T17:24:00.593Z,102315.03
2018-04-17T17:26:26.289Z,102318.98
2018-04-17T17:28:52.047Z,102318.41
2018-04-17T17:31:17.958Z,102318.88
2018-04-17T17:33:43.635Z,102320.59
2018-04-17T17:36:09.328Z,102318.83
2018-04-17T17:38:35.015Z,102319.69
2018-04-17T17:41:00.699Z,102314.69
2018-04-17T17:43:26.392Z,102317.65
2018-04-17T17:45:52.086Z,102314.39
2018-04-17T17:48:17.750Z,102316.11
2018-04-17T17:50:43.692Z,102320.30
2018-04-17T17:53:09.361Z,102324.57
2018-04-17T17:55:35.036Z,102330.11
2018-04-17T17:58:00.733Z,102338.66
2018-04-17T18:00:26.455Z,102332.58
2018-04-17T18:02:52.123Z,102334.55
2018-04-17T18:05:17.795Z,102327.30
2018-04-17T18:07:43.630Z,102334.86
2018-04-17T18:10:09.299Z,102339.69
2018-04-17T18:12:35.017Z,102340.54
2018-04-17T18:15:00.683Z,102335.30
2018-04-17T18:17:26.372Z,102334.52
2018-04-17T18:19:52.058Z,102346.39
2018-04-17T18:22:17.770Z,102349.19
2018-04-17T18:24:43.564Z,102351.11
2018-04-17T18:27:09.248Z,102358.73
2018-04-17T18:29:34.914Z,102366.53
2018-04-17T18:32:00.618Z,102372.95
2018-04-17T18:34:26.287Z,102378.09
2018-04-17T18:36:51.996Z,102382.01
2018-04-17T18:39:17.671Z,102387.72
2018-04-17T18:41:43.387Z,102390.27
2018-04-17T18:44:09.071Z,102386.86
2018-04-17T18:46:34.731Z,102388.12
2018-04-17T18:49:00.410Z,102373.84
2018-04-17T18:51:26.822Z,102389.06
2018-04-17T18:53:52.518Z,102385.30
2018-04-17T18:56:18.199Z,102387.64
2018-04-17T18:58:43.919Z,102397.48
2018-04-17T19:01:09.637Z,102398.95
2018-04-17T19:03:35.303Z,102405.74
2018-04-17T19:06:00.998Z,102414.41
2018-04-17T19:08:26.664Z,102404.91
2018-04-17T19:10:52.575Z,102408.25
2018-04-17T19:13:18.275Z,102412.53
2018-04-17T19:15:43.955Z,102391.73
2018-04-17T19:18:09.620Z,102408.69
2018-04-17T19:20:35.317Z,102407.88
2018-04-17T19:23:01.039Z,102410.03
2018-04-17T19:25:26.725Z,102421.02
2018-04-17T19:27:52.467Z,102423.91
2018-04-17T19:30:18.142Z,102433.33
2018-04-17T19:32:43.872Z,102424.98
2018-04-17T19:35:09.543Z,102430.79
2018-04-17T19:37:35.239Z,102437.27
2018-04-17T19:40:00.914Z,102431.33
2018-04-17T19:42:26.867Z,102441.60
2018-04-17T19:44:52.524Z,102434.65
2018-04-17T19:47:18.199Z,102431.72
2018-04-17T19:49:43.885Z,102428.42
2018-04-17T19:52:09.566Z,102432.22
2018-04-17T19:54:35.244Z,102439.70
2018-04-17T19:57:00.987Z,102440.86
2018-04-17T19:59:26.666Z,102440.58
2018-04-17T20:01:52.383Z,102434.58
2018-04-17T20:04:18.055Z,102439.64
2018-04-17T20:06:43.801Z,102428.83
2018-04-17T20:09:09.475Z,102434.14
2018-04-17T20:11:35.163Z,102449.55
2018-04-17T20:14:00.840Z,102447.91
2018-04-17T20:16:26.530Z,102442.83
2018-04-17T20:18:52.235Z,102450.49
2018-04-17T20:21:18.025Z,102453.98
2018-04-17T20:23:43.713Z,102450.00
2018-04-17T20:26:09.443Z,102449.53
2018-04-17T20:28:35.143Z,102444.15
2018-04-17T20:31:00.819Z,102443.02
2018-04-17T20:33:26.509Z,102436.94
2018-04-17T20:35:52.183Z,102437.92
2018-04-17T20:38:17.874Z,102422.22
2018-04-17T20:40:43.548Z,102419.23
2018-04-17T20:43:09.240Z,102416.64
2018-04-17T20:45:34.915Z,102419.77
2018-04-17T20:48:00.706Z,102419.28
2018-04-17T20:50:26.389Z,102417.97
2018-04-17T20:52:52.208Z,102425.13
2018-04-17T20:55:17.882Z,102426.93
2018-04-17T20:57:43.578Z,102425.32
2018-04-17T21:00:09.303Z,102415.89
2018-04-17T21:02:35.019Z,102422.60
2018-04-17T21:05:00.671Z,102426.60
2018-04-17T21:07:26.383Z,102431.41
2018-04-17T21:09:52.059Z,102436.65
2018-04-17T21:12:17.762Z,102435.14
2018-04-17T21:14:43.420Z,102436.88
2018-04-17T21:17:09.147Z,102443.39
2018-04-17T21:19:34.833Z,102434.00
2018-04-17T21:22:00.649Z,102434.80
2018-04-17T21:24:26.327Z,102429.08
2018-04-17T21:26:52.027Z,102433.18
2018-04-17T21:29:17.702Z,102433.08
2018-04-17T21:31:43.411Z,102436.84
2018-04-17T21:34:09.105Z,102439.77
2018-04-17T21:36:34.795Z,102444.41
2018-04-17T21:39:00.466Z,102448.13
2018-04-17T21:41:26.252Z,102449.60
2018-04-17T21:43:51.929Z,102455.91
2018-04-17T21:46:17.892Z,102458.73
2018-04-17T21:48:43.564Z,102455.55
2018-04-17T21:51:09.232Z,102461.06
2018-04-17T21:53:34.960Z,102447.57
2018-04-17T21:56:00.644Z,102444.23
2018-04-17T21:58:26.363Z,102446.56
2018-04-17T22:00:52.023Z,102453.45
2018-04-17T22:03:17.712Z,102453.27
2018-04-17T22:05:43.368Z,102452.55
2018-04-17T22:08:09.054Z,102456.63
2018-04-17T22:10:34.739Z,102465.20
2018-04-17T22:13:00.424Z,102465.98
2018-04-17T22:15:26.108Z,102452.63
2018-04-17T22:17:51.810Z,102476.08
2018-04-17T22:20:17.483Z,102476.31
2018-04-17T22:22:43.164Z,102482.14
2018-04-17T22:25:08.854Z,102480.20
2018-04-17T22:27:34.606Z,102486.16
2018-04-17T22:30:00.284Z,102489.66
2018-04-17T22:32:25.943Z,102490.59
2018-04-17T22:34:51.638Z,102492.56
2018-04-17T22:37:17.331Z,102490.86
2018-04-17T22:39:43.030Z,102490.52
2018-04-17T22:42:08.708Z,102488.52
2018-04-17T22:44:34.399Z,102483.13
2018-04-17T22:47:00.080Z,102470.58
2018-04-17T22:49:25.779Z,102480.38
2018-04-17T22:51:51.467Z,102480.13
2018-04-17T22:54:17.166Z,102479.83
2018-04-17T22:56:42.852Z,102483.91
2018-04-17T22:59:08.562Z,102480.84
2018-04-17T23:01:34.223Z,102491.56
2018-04-17T23:03:59.930Z,102494.05
2018-04-17T23:06:25.602Z,102497.28
2018-04-17T23:08:51.280Z,102503.95
2018-04-17T23:11:16.951Z,102509.31
2018-04-17T23:13:42.608Z,102509.31
2018-04-17T23:16:08.290Z,102512.75
2018-04-17T23:18:33.962Z,102511.09
2018-04-17T23:20:59.657Z,102510.03
2018-04-17T23:23:25.344Z,102510.24
2018-04-17T23:25:51.002Z,102516.50
2018-04-17T23:28:16.690Z,102515.30
2018-04-17T23:30:42.347Z,102513.22
2018-04-17T23:33:08.035Z,102510.80
2018-04-17T23:35:33.691Z,102512.80
2018-04-17T23:37:59.354Z,102510.33
2018-04-17T23:40:25.072Z,102510.07
2018-04-17T23:42:50.751Z,102517.72
2018-04-17T23:45:16.630Z,102513.98
2018-04-17T23:47:42.296Z,102514.27
2018-04-17T23:50:08.305Z,102517.97
2018-04-17T23:52:33.971Z,102519.38
2018-04-17T23:54:59.681Z,102512.10
2018-04-17T23:57:25.338Z,102519.37
2018-04-17T23:59:51.016Z,102518.26
